Terminal Aerodrome Forecast
Issued by NWS

Home | Current Version | Previous Version | Graphics & Text | Print | Product List | Glossary On
Versions: 1 2 3 4 5 6 7 8 9 10 11 12 13 14 15 16 17
000
FTUS43 KMPX 260520
TAFAXN
TAF
KAXN 260520Z 2606/2706 20009KT P6SM SCT020 OVC100
      TEMPO 2606/2608 BKN020 OVC100
     FM260800 19011KT P6SM VCSH FEW025 OVC100
     FM261100 25013KT 6SM BR BKN100
     FM261600 31015G22KT P6SM BKN025
     FM270000 33007KT P6SM OVC020=

USA.gov is the U.S. government's official web portal to all federal, state and local government web resources and services.